CheckWX is a tool to help pilots better visualize weather data.  It is not intended as a substitute for an official pre-flight weather briefing.

20:46:42 UTC

KILN METAR
Wilmington Airpark
Wilmington, Ohio, USA
Current

38 mins ago

KILN 252009Z AUTO 19006KT 10SM -RA SCT090 OVC110 21/17 A3009 RMK AO2 LTG DSNT SE P0000 T02060172
Observed
May-25 @ 20:09 UTC
Wind
  • 190° at 6 KTS
Visibility
Flight Rules
VFR
Conditions
Light Rain
Cloud Levels
  • Scattered at 9,000' AGL
  • Overcast at 11,000' AGL
Temperature
21°C / 70°F
Dewpoint
17°C / 63°F
Humidity
78%
Altimeter
30.09" Hg
Pressure
1018.92 hPa
Current Rain
0.01"
Previous

53 mins ago

KILN 251954Z AUTO 25009KT 9SM VCTS -RA SCT060 OVC090 21/18 A3008 RMK AO2 PK WND 25036/1916 LTG DSNT SE AND S RAB43 SLP180 P0000 T02060183
Observed
May-25 @ 19:54 UTC
Wind
  • 250° at 9 KTS
Visibility
Flight Rules
VFR
Conditions
Area Thunderstorm, Light Rain
Cloud Levels
  • Scattered at 6,000' AGL
  • Overcast at 9,000' AGL
Temperature
21°C / 70°F
Dewpoint
18°C / 64°F
Humidity
83%
Altimeter
30.08" Hg
Pressure
1018.62 hPa
Current Rain
0.01"
Previous

1 hour ago

KILN 251926Z AUTO 27020G35KT 10SM OVC055 22/18 A3008 RMK AO2 PK WND 25036/1916 LTG DSNT SW AND W T02220178
Observed
May-25 @ 19:26 UTC
Wind
  • 270° at 20 KTS
  • Gusting to 35 KTS
Visibility
Flight Rules
VFR
Cloud Levels
  • Overcast at 5,500' AGL
Temperature
22°C / 72°F
Dewpoint
18°C / 64°F
Humidity
78%
Altimeter
30.08" Hg
Pressure
1018.62 hPa